createdAt,value
2017-06-26T00:01:45.076Z,1.50
2017-06-26T00:04:12.536Z,1.50
2017-06-26T00:06:40.006Z,1.87
2017-06-26T00:09:07.461Z,1.70
2017-06-26T00:11:34.926Z,1.73
2017-06-26T00:14:02.433Z,5.03
2017-06-26T00:16:29.889Z,1.97
2017-06-26T00:18:57.345Z,2.27
2017-06-26T00:21:24.809Z,1.60
2017-06-26T00:23:52.269Z,2.37
2017-06-26T00:26:20.497Z,4.07
2017-06-26T00:28:47.949Z,2.73
2017-06-26T00:31:15.408Z,1.97
2017-06-26T00:33:42.870Z,2.73
2017-06-26T00:36:10.332Z,2.40
2017-06-26T00:38:37.798Z,2.20
2017-06-26T00:41:05.267Z,2.03
2017-06-26T00:43:32.731Z,5.50
2017-06-26T00:46:00.189Z,2.77
2017-06-26T00:48:27.653Z,2.40
2017-06-26T00:50:55.114Z,2.20
2017-06-26T00:53:22.569Z,4.03
2017-06-26T00:55:50.033Z,3.67
2017-06-26T00:58:17.482Z,3.03
2017-06-26T01:00:44.941Z,2.90
2017-06-26T01:03:12.392Z,2.47
2017-06-26T01:05:39.853Z,2.20
2017-06-26T01:08:07.311Z,2.27
2017-06-26T01:10:34.768Z,2.77
2017-06-26T01:13:02.230Z,2.57
2017-06-26T01:15:29.677Z,1.57
2017-06-26T01:17:57.136Z,3.17
2017-06-26T01:20:24.588Z,3.13
2017-06-26T01:22:52.045Z,2.00
2017-06-26T01:25:19.492Z,5.90
2017-06-26T01:27:46.952Z,3.60
2017-06-26T01:30:14.421Z,4.43
2017-06-26T01:32:41.893Z,2.23
2017-06-26T01:35:09.356Z,1.87
2017-06-26T01:37:36.812Z,2.20
2017-06-26T01:40:04.274Z,5.17
2017-06-26T01:42:31.733Z,2.60
2017-06-26T01:44:59.201Z,2.20
2017-06-26T01:47:27.425Z,3.50
2017-06-26T01:49:54.894Z,2.40
2017-06-26T01:52:22.384Z,1.93
2017-06-26T01:54:49.845Z,2.90
2017-06-26T01:57:17.300Z,2.27
2017-06-26T01:59:45.529Z,3.97
2017-06-26T02:02:13.020Z,2.90
2017-06-26T02:04:40.465Z,2.73
2017-06-26T02:07:07.920Z,3.60
2017-06-26T02:09:35.379Z,5.13
2017-06-26T02:12:02.841Z,2.50
2017-06-26T02:14:30.293Z,2.90
2017-06-26T02:16:57.757Z,2.60
2017-06-26T02:19:25.218Z,3.47
2017-06-26T02:21:52.674Z,1.70
2017-06-26T02:24:20.133Z,2.50
2017-06-26T02:26:47.589Z,3.10
2017-06-26T02:29:15.045Z,2.70
2017-06-26T02:31:42.513Z,4.93
2017-06-26T02:34:09.964Z,1.93
2017-06-26T02:36:37.423Z,3.00
2017-06-26T02:39:04.885Z,2.30
2017-06-26T02:41:32.346Z,3.60
2017-06-26T02:43:59.801Z,2.47
2017-06-26T02:46:27.261Z,3.70
2017-06-26T02:48:54.713Z,2.23
2017-06-26T02:51:22.173Z,3.30
2017-06-26T02:53:49.637Z,2.50
2017-06-26T02:56:17.093Z,3.90
2017-06-26T02:58:44.570Z,2.20
2017-06-26T03:01:12.029Z,2.40
2017-06-26T03:03:40.251Z,8.77
2017-06-26T03:06:07.717Z,2.93
2017-06-26T03:08:35.171Z,2.23
2017-06-26T03:11:02.634Z,2.50
2017-06-26T03:13:30.101Z,4.27
2017-06-26T03:15:57.561Z,5.73
2017-06-26T03:18:25.060Z,2.43
2017-06-26T03:20:53.280Z,3.60
2017-06-26T03:23:20.742Z,3.00
2017-06-26T03:25:48.201Z,5.50
2017-06-26T03:28:15.652Z,3.83
2017-06-26T03:30:43.121Z,3.00
2017-06-26T03:33:10.576Z,3.43
2017-06-26T03:35:38.053Z,4.93
2017-06-26T03:38:05.508Z,7.17
2017-06-26T03:40:33.015Z,2.20
2017-06-26T03:43:00.477Z,2.47
2017-06-26T03:45:27.933Z,2.00
2017-06-26T03:47:55.390Z,4.30
2017-06-26T03:50:22.849Z,2.53
2017-06-26T03:52:50.313Z,3.80
2017-06-26T03:55:17.760Z,3.53
2017-06-26T03:57:45.216Z,3.13
2017-06-26T04:00:12.685Z,1.93
2017-06-26T04:02:40.148Z,4.63
2017-06-26T04:05:07.603Z,4.50
2017-06-26T04:07:35.060Z,3.37
2017-06-26T04:10:02.521Z,4.13
2017-06-26T04:12:30.018Z,4.43
2017-06-26T04:14:57.481Z,3.40
2017-06-26T04:17:24.933Z,2.83
2017-06-26T04:19:52.392Z,3.50
2017-06-26T04:22:19.862Z,3.13
2017-06-26T04:24:47.329Z,8.60
2017-06-26T04:27:14.785Z,5.20
2017-06-26T04:29:42.253Z,3.17
2017-06-26T04:32:09.704Z,5.00
2017-06-26T04:34:37.164Z,5.33
2017-06-26T04:37:04.981Z,4.00
2017-06-26T04:39:32.443Z,5.63
2017-06-26T04:41:59.900Z,3.60
2017-06-26T04:44:27.365Z,4.83
2017-06-26T04:46:54.838Z,5.57
2017-06-26T04:49:22.288Z,4.20
2017-06-26T04:51:49.741Z,3.53
2017-06-26T04:54:17.237Z,3.67
2017-06-26T04:56:44.677Z,12.47
2017-06-26T04:59:12.136Z,7.33
2017-06-26T05:01:39.597Z,4.23
2017-06-26T05:04:07.052Z,6.40
2017-06-26T05:06:34.513Z,5.17
2017-06-26T05:09:01.978Z,4.70
2017-06-26T05:11:29.449Z,3.87
2017-06-26T05:13:56.897Z,4.63
2017-06-26T05:16:24.353Z,3.67
2017-06-26T05:18:51.805Z,5.53
2017-06-26T05:21:19.265Z,4.43
2017-06-26T05:23:46.729Z,4.50
2017-06-26T05:26:14.184Z,5.63
2017-06-26T05:28:41.631Z,7.00
2017-06-26T05:31:09.141Z,5.70
2017-06-26T05:33:36.602Z,8.67
2017-06-26T05:36:04.053Z,7.50
2017-06-26T05:38:31.513Z,8.40
2017-06-26T05:40:58.961Z,9.23
2017-06-26T05:43:26.416Z,8.87
2017-06-26T05:45:53.874Z,9.93
2017-06-26T05:48:21.338Z,8.77
2017-06-26T05:50:48.869Z,7.23
2017-06-26T05:53:16.326Z,6.80
2017-06-26T05:55:43.784Z,10.80
2017-06-26T05:58:11.297Z,9.63
2017-06-26T06:00:38.758Z,8.40
2017-06-26T06:03:06.214Z,8.50
2017-06-26T06:05:33.677Z,6.60
2017-06-26T06:08:01.138Z,6.20
2017-06-26T06:10:28.596Z,9.80
2017-06-26T06:12:56.053Z,8.53
2017-06-26T06:15:23.512Z,9.73
2017-06-26T06:17:50.978Z,6.63
2017-06-26T06:20:18.434Z,7.90
2017-06-26T06:22:45.949Z,8.70
2017-06-26T06:25:14.173Z,8.73
2017-06-26T06:27:41.637Z,9.13
2017-06-26T06:30:09.089Z,8.27
2017-06-26T06:32:36.557Z,7.90
2017-06-26T06:35:04.022Z,7.70
2017-06-26T06:37:31.481Z,8.40
2017-06-26T06:39:59.011Z,10.77
2017-06-26T06:42:26.454Z,7.50
2017-06-26T06:44:53.922Z,7.23
2017-06-26T06:47:21.372Z,9.93
2017-06-26T06:49:48.838Z,8.30
2017-06-26T06:52:16.301Z,7.50
2017-06-26T06:54:43.774Z,9.33
2017-06-26T06:57:11.234Z,8.90
2017-06-26T06:59:38.705Z,10.00
2017-06-26T07:02:06.173Z,11.53
2017-06-26T07:04:33.633Z,14.70
2017-06-26T07:07:01.097Z,11.30
2017-06-26T07:09:28.553Z,9.07
2017-06-26T07:11:56.029Z,13.43
2017-06-26T07:14:23.493Z,9.70
2017-06-26T07:16:50.965Z,10.83
2017-06-26T07:19:18.441Z,8.63
2017-06-26T07:21:45.898Z,9.70
2017-06-26T07:24:13.369Z,12.07
2017-06-26T07:26:40.824Z,11.73
2017-06-26T07:29:08.281Z,9.53
2017-06-26T07:31:36.562Z,10.43
2017-06-26T07:34:04.025Z,13.20
2017-06-26T07:36:31.485Z,10.27
2017-06-26T07:38:58.957Z,14.03
2017-06-26T07:41:26.425Z,11.53
2017-06-26T07:43:53.880Z,9.17
2017-06-26T07:46:21.341Z,9.80
2017-06-26T07:48:48.793Z,9.63
2017-06-26T07:51:16.257Z,10.50
2017-06-26T07:53:43.797Z,9.63
2017-06-26T07:56:11.265Z,9.70
2017-06-26T07:58:38.729Z,9.43
2017-06-26T08:01:06.198Z,9.40
2017-06-26T08:03:33.655Z,11.93
2017-06-26T08:06:01.129Z,12.40
2017-06-26T08:08:29.361Z,11.33
2017-06-26T08:10:56.839Z,12.57
2017-06-26T08:13:24.297Z,12.50
2017-06-26T08:15:51.777Z,11.70
2017-06-26T08:18:19.996Z,10.33
2017-06-26T08:20:47.448Z,17.23
2017-06-26T08:23:14.912Z,12.50
2017-06-26T08:25:42.373Z,13.50
2017-06-26T08:28:09.826Z,14.43
2017-06-26T08:30:37.281Z,9.87
2017-06-26T08:33:04.741Z,12.57
2017-06-26T08:35:32.201Z,14.10
2017-06-26T08:37:59.675Z,12.47
2017-06-26T08:40:27.177Z,16.47
2017-06-26T08:42:54.625Z,12.20
2017-06-26T08:45:22.881Z,14.73
2017-06-26T08:47:50.329Z,16.03
2017-06-26T08:50:17.783Z,14.07
2017-06-26T08:52:45.249Z,12.17
2017-06-26T08:55:12.714Z,13.03
2017-06-26T08:57:40.281Z,11.20
2017-06-26T09:00:07.741Z,9.80
2017-06-26T09:02:35.205Z,15.33
2017-06-26T09:05:02.664Z,13.50
2017-06-26T09:07:30.128Z,11.67
2017-06-26T09:09:57.597Z,10.83
2017-06-26T09:12:25.045Z,11.67
2017-06-26T09:14:53.268Z,11.33
2017-06-26T09:17:20.730Z,10.27
2017-06-26T09:19:48.185Z,9.30
2017-06-26T09:22:15.641Z,7.43
2017-06-26T09:24:43.105Z,8.23
2017-06-26T09:27:10.568Z,9.57
2017-06-26T09:29:38.037Z,10.80
2017-06-26T09:32:05.499Z,8.20
2017-06-26T09:34:33.029Z,9.37
2017-06-26T09:37:00.483Z,8.70
2017-06-26T09:39:27.934Z,7.60
2017-06-26T09:41:55.386Z,7.43
2017-06-26T09:44:22.839Z,6.83
2017-06-26T09:46:50.292Z,8.30
2017-06-26T09:49:17.743Z,8.13
2017-06-26T09:51:46.001Z,8.37
2017-06-26T09:54:13.457Z,10.50
2017-06-26T09:56:40.917Z,9.10
2017-06-26T09:59:08.387Z,7.23
2017-06-26T10:01:36.609Z,10.60
2017-06-26T10:04:04.123Z,8.20
2017-06-26T10:06:31.585Z,8.73
2017-06-26T10:08:59.814Z,8.80
2017-06-26T10:11:27.358Z,6.57
2017-06-26T10:13:54.803Z,7.70
2017-06-26T10:16:22.258Z,7.83
2017-06-26T10:18:49.706Z,10.03
2017-06-26T10:21:17.160Z,9.80
2017-06-26T10:23:44.621Z,10.63
2017-06-26T10:26:12.081Z,9.53
2017-06-26T10:28:39.520Z,8.20
2017-06-26T10:31:07.745Z,9.37
2017-06-26T10:33:35.225Z,10.50
2017-06-26T10:36:02.677Z,12.10
2017-06-26T10:38:30.129Z,6.83
2017-06-26T10:40:57.578Z,9.87
2017-06-26T10:43:25.033Z,9.80
2017-06-26T10:45:52.486Z,10.60
2017-06-26T10:48:19.951Z,8.47
2017-06-26T10:50:47.412Z,13.33
2017-06-26T10:53:14.884Z,7.83
2017-06-26T10:55:42.413Z,10.80
2017-06-26T10:58:09.871Z,6.80
2017-06-26T11:00:37.325Z,7.80
2017-06-26T11:03:04.781Z,7.90
2017-06-26T11:05:32.301Z,8.70
2017-06-26T11:07:59.765Z,9.93
2017-06-26T11:10:27.215Z,11.70
2017-06-26T11:12:54.746Z,10.37
2017-06-26T11:15:22.236Z,11.87
2017-06-26T11:17:49.749Z,11.37
2017-06-26T11:20:17.194Z,9.50
2017-06-26T11:22:44.657Z,8.07
2017-06-26T11:25:12.099Z,8.63
2017-06-26T11:27:39.617Z,10.17
2017-06-26T11:30:07.149Z,11.07
2017-06-26T11:32:34.642Z,8.43
2017-06-26T11:35:02.101Z,9.13
2017-06-26T11:37:29.549Z,13.33
2017-06-26T11:39:56.998Z,9.30
2017-06-26T11:42:24.469Z,8.57
2017-06-26T11:44:51.918Z,9.43
2017-06-26T11:47:19.368Z,10.47
2017-06-26T11:49:46.825Z,18.57
2017-06-26T11:52:14.297Z,8.90
2017-06-26T11:54:41.785Z,8.13
2017-06-26T11:57:10.009Z,9.00
2017-06-26T11:59:37.490Z,10.73
2017-06-26T12:02:04.950Z,8.20
2017-06-26T12:04:32.414Z,11.57
2017-06-26T12:06:59.877Z,12.20
2017-06-26T12:09:28.113Z,9.70
2017-06-26T12:11:55.570Z,10.80
2017-06-26T12:14:23.042Z,11.17
2017-06-26T12:16:50.489Z,9.30
2017-06-26T12:19:17.958Z,15.93
2017-06-26T12:21:45.521Z,10.47
2017-06-26T12:24:13.021Z,12.00
2017-06-26T12:26:41.250Z,11.10
2017-06-26T12:29:08.728Z,10.70
2017-06-26T12:31:36.190Z,11.20
2017-06-26T12:34:03.652Z,12.93
2017-06-26T12:36:31.101Z,9.63
2017-06-26T12:38:58.640Z,13.67
2017-06-26T12:41:26.093Z,12.60
2017-06-26T12:43:53.566Z,11.77
2017-06-26T12:46:21.004Z,13.20
2017-06-26T12:48:48.477Z,10.27
2017-06-26T12:51:15.924Z,11.07
2017-06-26T12:53:43.388Z,10.93
2017-06-26T12:56:10.847Z,12.60
2017-06-26T12:58:38.301Z,8.67
2017-06-26T13:01:05.764Z,8.90
2017-06-26T13:03:33.268Z,13.80
2017-06-26T13:06:01.517Z,9.53
2017-06-26T13:08:28.971Z,11.97
2017-06-26T13:10:56.437Z,9.87
2017-06-26T13:13:23.909Z,9.23
2017-06-26T13:15:52.129Z,9.73
2017-06-26T13:18:19.589Z,11.33
2017-06-26T13:20:47.046Z,9.83
2017-06-26T13:23:14.506Z,9.93
2017-06-26T13:25:41.960Z,11.63
2017-06-26T13:28:09.465Z,13.53
2017-06-26T13:30:36.933Z,13.50
2017-06-26T13:33:05.173Z,13.40
2017-06-26T13:35:33.055Z,11.30
2017-06-26T13:38:00.517Z,10.13
2017-06-26T13:40:27.983Z,9.77
2017-06-26T13:42:55.425Z,12.77
2017-06-26T13:45:22.893Z,11.93
2017-06-26T13:47:50.399Z,12.30
2017-06-26T13:50:17.855Z,12.60
2017-06-26T13:52:45.309Z,9.90
2017-06-26T13:55:12.775Z,14.30
2017-06-26T13:57:40.227Z,12.13
2017-06-26T14:00:07.684Z,12.90
2017-06-26T14:02:35.136Z,14.27
2017-06-26T14:05:02.595Z,10.57
2017-06-26T14:07:30.070Z,11.63
2017-06-26T14:09:57.537Z,12.57
2017-06-26T14:12:25.004Z,11.87
2017-06-26T14:14:52.457Z,15.37
2017-06-26T14:17:19.920Z,11.73
2017-06-26T14:19:47.389Z,10.60
2017-06-26T14:22:14.857Z,11.53
2017-06-26T14:24:42.308Z,11.47
2017-06-26T14:27:09.760Z,11.27
2017-06-26T14:29:37.225Z,13.50
2017-06-26T14:32:04.671Z,11.50
2017-06-26T14:34:32.128Z,10.80
2017-06-26T14:36:59.685Z,13.23
2017-06-26T14:39:27.150Z,10.13
2017-06-26T14:41:54.598Z,9.20
2017-06-26T14:44:22.069Z,11.40
2017-06-26T14:46:49.527Z,9.30
2017-06-26T14:49:17.048Z,11.37
2017-06-26T14:51:44.541Z,10.73
2017-06-26T14:54:12.093Z,11.03
2017-06-26T14:56:39.622Z,9.30
2017-06-26T14:59:07.100Z,9.60
2017-06-26T15:01:34.561Z,11.20
2017-06-26T15:04:02.021Z,9.03
2017-06-26T15:06:29.493Z,9.67
2017-06-26T15:08:56.954Z,10.17
2017-06-26T15:11:24.417Z,9.90
2017-06-26T15:13:51.877Z,10.00
2017-06-26T15:16:19.436Z,11.30
2017-06-26T15:18:46.893Z,12.17
2017-06-26T15:21:14.348Z,10.73
2017-06-26T15:23:41.877Z,8.70
2017-06-26T15:26:09.323Z,9.00
2017-06-26T15:28:36.785Z,10.80
2017-06-26T15:31:04.241Z,7.73
2017-06-26T15:33:31.730Z,7.93
2017-06-26T15:35:59.182Z,9.83
2017-06-26T15:38:26.652Z,9.40
2017-06-26T15:40:54.112Z,8.17
2017-06-26T15:43:21.605Z,8.03
2017-06-26T15:45:49.833Z,9.13
2017-06-26T15:48:17.292Z,9.50
2017-06-26T15:50:44.748Z,10.80
2017-06-26T15:53:12.205Z,9.67
2017-06-26T15:55:39.763Z,8.33
2017-06-26T15:58:07.215Z,9.03
2017-06-26T16:00:34.704Z,9.57
2017-06-26T16:03:02.269Z,9.50
2017-06-26T16:05:29.744Z,8.60
2017-06-26T16:07:57.196Z,8.57
2017-06-26T16:10:24.656Z,10.03
2017-06-26T16:12:52.201Z,8.00
2017-06-26T16:15:19.656Z,8.70
2017-06-26T16:17:47.109Z,6.87
2017-06-26T16:20:14.573Z,7.40
2017-06-26T16:22:42.159Z,7.47
2017-06-26T16:25:09.723Z,7.43
2017-06-26T16:27:37.292Z,8.20
2017-06-26T16:30:05.518Z,9.60
2017-06-26T16:32:32.972Z,7.80
2017-06-26T16:35:00.455Z,7.63
2017-06-26T16:37:28.009Z,10.10
2017-06-26T16:39:55.488Z,6.67
2017-06-26T16:42:23.749Z,7.57
2017-06-26T16:44:51.201Z,6.20
2017-06-26T16:47:18.674Z,6.90
2017-06-26T16:49:46.129Z,6.33
2017-06-26T16:52:13.588Z,8.27
2017-06-26T16:54:41.145Z,6.70
2017-06-26T16:57:08.609Z,6.70
2017-06-26T16:59:36.156Z,6.50
2017-06-26T17:02:03.707Z,6.20
2017-06-26T17:04:31.160Z,6.70
2017-06-26T17:06:59.983Z,5.83
2017-06-26T17:09:27.521Z,6.27
2017-06-26T17:11:54.976Z,7.50
2017-06-26T17:14:22.536Z,6.73
2017-06-26T17:16:49.992Z,6.80
2017-06-26T17:19:17.452Z,6.77
2017-06-26T17:21:44.904Z,7.20
2017-06-26T17:24:12.389Z,9.00
2017-06-26T17:26:39.834Z,7.37
2017-06-26T17:29:07.397Z,8.50
2017-06-26T17:31:34.948Z,10.60
2017-06-26T17:34:02.513Z,7.00
2017-06-26T17:36:29.960Z,9.50
2017-06-26T17:38:57.421Z,7.80
2017-06-26T17:41:24.881Z,8.90
2017-06-26T17:43:52.335Z,7.77
2017-06-26T17:46:19.807Z,10.60
2017-06-26T17:48:47.273Z,8.80
2017-06-26T17:51:14.724Z,7.27
2017-06-26T17:53:42.185Z,7.90
2017-06-26T17:56:09.720Z,7.23
2017-06-26T17:58:37.174Z,7.40
2017-06-26T18:01:04.709Z,7.30
2017-06-26T18:03:32.193Z,7.57
2017-06-26T18:05:59.637Z,11.40
2017-06-26T18:08:27.132Z,7.60
2017-06-26T18:10:54.689Z,7.50
2017-06-26T18:13:22.161Z,7.63
2017-06-26T18:15:49.613Z,7.90
2017-06-26T18:18:17.172Z,7.53
2017-06-26T18:20:44.737Z,6.90
2017-06-26T18:23:12.193Z,7.13
2017-06-26T18:25:39.648Z,7.67
2017-06-26T18:28:07.109Z,8.87
2017-06-26T18:30:34.583Z,7.93
2017-06-26T18:33:02.814Z,7.40
2017-06-26T18:35:30.296Z,7.23
2017-06-26T18:37:57.774Z,6.70
2017-06-26T18:40:25.217Z,6.77
2017-06-26T18:42:52.669Z,7.20
2017-06-26T18:45:20.118Z,7.10
2017-06-26T18:47:47.576Z,8.57
2017-06-26T18:50:15.033Z,8.53
2017-06-26T18:52:42.605Z,8.00
2017-06-26T18:55:10.053Z,8.93
2017-06-26T18:57:37.509Z,8.60
2017-06-26T19:00:04.962Z,7.80
2017-06-26T19:02:32.428Z,8.10
2017-06-26T19:04:59.886Z,8.10
2017-06-26T19:07:27.341Z,7.57
2017-06-26T19:09:54.800Z,7.37
2017-06-26T19:12:22.256Z,7.60
2017-06-26T19:14:49.700Z,6.60
2017-06-26T19:17:17.173Z,7.83
2017-06-26T19:19:44.625Z,8.03
2017-06-26T19:22:12.081Z,7.77
2017-06-26T19:24:39.561Z,7.57
2017-06-26T19:27:07.114Z,7.97
2017-06-26T19:29:34.673Z,8.13
2017-06-26T19:32:02.241Z,8.93
2017-06-26T19:34:30.412Z,8.40
2017-06-26T19:37:01.186Z,8.23
2017-06-26T19:39:29.392Z,7.80
2017-06-26T19:41:56.885Z,8.23
2017-06-26T19:44:24.357Z,9.10
2017-06-26T19:46:51.800Z,8.60
2017-06-26T19:49:19.257Z,8.60
2017-06-26T19:51:46.735Z,8.57
2017-06-26T19:54:14.192Z,8.23
2017-06-26T19:56:41.636Z,8.87
2017-06-26T19:59:09.089Z,8.83
2017-06-26T20:01:36.573Z,8.90
2017-06-26T20:04:04.788Z,10.10
2017-06-26T20:06:32.227Z,9.93
2017-06-26T20:08:59.689Z,9.10
2017-06-26T20:11:27.142Z,9.97
2017-06-26T20:13:54.584Z,10.30
2017-06-26T20:16:22.796Z,8.87
2017-06-26T20:18:50.243Z,9.80
2017-06-26T20:21:17.680Z,9.10
2017-06-26T20:23:45.897Z,9.87
2017-06-26T20:26:13.371Z,11.50
2017-06-26T20:28:40.853Z,10.00
2017-06-26T20:31:08.294Z,10.40
2017-06-26T20:33:35.749Z,10.17
2017-06-26T20:36:03.208Z,9.27
2017-06-26T20:38:30.677Z,9.40
2017-06-26T20:40:58.140Z,9.23
2017-06-26T20:43:25.600Z,10.97
2017-06-26T20:45:53.053Z,11.57
2017-06-26T20:48:20.513Z,9.23
2017-06-26T20:50:47.966Z,9.80
2017-06-26T20:53:15.420Z,9.60
2017-06-26T20:55:42.873Z,13.27
2017-06-26T20:58:10.336Z,11.83
2017-06-26T21:00:37.793Z,10.60
2017-06-26T21:03:05.274Z,9.93
2017-06-26T21:05:33.490Z,9.90
2017-06-26T21:08:00.954Z,9.67
2017-06-26T21:10:28.429Z,12.27
2017-06-26T21:12:55.875Z,10.53
2017-06-26T21:15:23.352Z,10.63
2017-06-26T21:17:50.805Z,11.23
2017-06-26T21:20:18.269Z,9.93
2017-06-26T21:22:45.741Z,11.30
2017-06-26T21:25:13.200Z,10.23
2017-06-26T21:27:40.657Z,12.03
2017-06-26T21:30:08.109Z,9.53
2017-06-26T21:32:35.572Z,15.13
2017-06-26T21:35:03.037Z,13.00
2017-06-26T21:37:30.504Z,9.80
2017-06-26T21:39:57.965Z,13.37
2017-06-26T21:42:25.445Z,9.90
2017-06-26T21:44:52.917Z,11.13
2017-06-26T21:47:20.385Z,13.63
2017-06-26T21:49:48.621Z,12.27
2017-06-26T21:52:16.087Z,14.00
2017-06-26T21:54:43.556Z,13.50
2017-06-26T21:57:11.010Z,12.70
2017-06-26T21:59:38.478Z,16.30
2017-06-26T22:02:05.945Z,13.70
2017-06-26T22:04:33.433Z,12.83
2017-06-26T22:07:00.897Z,15.90
2017-06-26T22:09:28.357Z,12.63
2017-06-26T22:11:55.809Z,12.13
2017-06-26T22:14:23.259Z,10.50
2017-06-26T22:16:50.707Z,11.53
2017-06-26T22:19:18.954Z,11.87
2017-06-26T22:21:46.417Z,11.93
2017-06-26T22:24:13.892Z,14.50
2017-06-26T22:26:41.349Z,10.43
2017-06-26T22:29:09.577Z,11.80
2017-06-26T22:31:37.061Z,9.40
2017-06-26T22:34:04.525Z,11.50
2017-06-26T22:36:31.987Z,11.87
2017-06-26T22:38:59.470Z,10.70
2017-06-26T22:41:27.685Z,9.80
2017-06-26T22:43:55.152Z,11.40
2017-06-26T22:46:22.608Z,12.80
2017-06-26T22:48:50.081Z,11.93
2017-06-26T22:51:17.542Z,12.33
2017-06-26T22:53:45.010Z,15.80
2017-06-26T22:56:12.473Z,12.63
2017-06-26T22:58:39.933Z,11.60
2017-06-26T23:01:07.397Z,10.60
2017-06-26T23:03:34.861Z,11.00
2017-06-26T23:06:03.089Z,11.57
2017-06-26T23:08:30.553Z,10.50
2017-06-26T23:10:58.008Z,10.60
2017-06-26T23:13:25.469Z,10.03
2017-06-26T23:15:52.941Z,14.27
2017-06-26T23:18:20.393Z,13.77
2017-06-26T23:20:47.856Z,10.87
2017-06-26T23:23:15.318Z,10.37
2017-06-26T23:25:42.793Z,14.87
2017-06-26T23:28:10.289Z,12.43
2017-06-26T23:30:38.507Z,13.60
2017-06-26T23:33:05.965Z,10.73
2017-06-26T23:35:33.434Z,14.10
2017-06-26T23:38:00.898Z,14.80
2017-06-26T23:40:28.373Z,11.63
2017-06-26T23:42:56.597Z,13.20
2017-06-26T23:45:24.065Z,10.97
2017-06-26T23:47:51.517Z,9.33
2017-06-26T23:50:18.981Z,11.40
2017-06-26T23:52:46.441Z,11.00
2017-06-26T23:55:13.905Z,10.70
2017-06-26T23:57:41.367Z,12.10
